sensor_id;sensor_type;location;lat;lon;timestamp;P1;durP1;ratioP1;P2;durP2;ratioP2
18296;SDS011;18066;52.106;5.534;2022-10-30T00:00:17;11.77;;;6.40;;
18296;SDS011;18066;52.106;5.534;2022-10-30T00:02:45;11.82;;;7.25;;
18296;SDS011;18066;52.106;5.534;2022-10-30T00:05:11;15.07;;;6.70;;
18296;SDS011;18066;52.106;5.534;2022-10-30T00:07:40;15.20;;;7.55;;
18296;SDS011;18066;52.106;5.534;2022-10-30T00:10:07;13.30;;;6.70;;
18296;SDS011;18066;52.106;5.534;2022-10-30T00:12:35;16.92;;;7.10;;
18296;SDS011;18066;52.106;5.534;2022-10-30T00:15:01;18.08;;;7.00;;
18296;SDS011;18066;52.106;5.534;2022-10-30T00:17:28;13.40;;;6.35;;
18296;SDS011;18066;52.106;5.534;2022-10-30T00:19:55;11.27;;;6.35;;
18296;SDS011;18066;52.106;5.534;2022-10-30T00:22:22;15.52;;;7.07;;
18296;SDS011;18066;52.106;5.534;2022-10-30T00:24:50;12.15;;;6.40;;
18296;SDS011;18066;52.106;5.534;2022-10-30T00:27:17;16.88;;;7.10;;
18296;SDS011;18066;52.106;5.534;2022-10-30T00:29:44;13.73;;;6.78;;
18296;SDS011;18066;52.106;5.534;2022-10-30T00:32:11;12.50;;;6.57;;
18296;SDS011;18066;52.106;5.534;2022-10-30T00:34:38;14.93;;;7.35;;
18296;SDS011;18066;52.106;5.534;2022-10-30T00:37:04;14.95;;;6.97;;
18296;SDS011;18066;52.106;5.534;2022-10-30T00:39:31;12.35;;;6.53;;
18296;SDS011;18066;52.106;5.534;2022-10-30T00:41:59;13.63;;;6.82;;
18296;SDS011;18066;52.106;5.534;2022-10-30T00:44:35;16.10;;;7.35;;
18296;SDS011;18066;52.106;5.534;2022-10-30T00:47:12;18.75;;;7.43;;
18296;SDS011;18066;52.106;5.534;2022-10-30T00:49:49;16.48;;;6.90;;
18296;SDS011;18066;52.106;5.534;2022-10-30T00:52:19;19.92;;;8.20;;
18296;SDS011;18066;52.106;5.534;2022-10-30T00:54:48;15.93;;;7.50;;
18296;SDS011;18066;52.106;5.534;2022-10-30T00:57:16;14.93;;;7.28;;
18296;SDS011;18066;52.106;5.534;2022-10-30T00:59:44;14.57;;;7.20;;
18296;SDS011;18066;52.106;5.534;2022-10-30T01:02:11;14.57;;;7.05;;
18296;SDS011;18066;52.106;5.534;2022-10-30T01:04:38;12.70;;;6.93;;
18296;SDS011;18066;52.106;5.534;2022-10-30T01:07:08;10.32;;;7.25;;
18296;SDS011;18066;52.106;5.534;2022-10-30T01:09:36;10.15;;;6.63;;
18296;SDS011;18066;52.106;5.534;2022-10-30T01:12:04;12.77;;;6.78;;
18296;SDS011;18066;52.106;5.534;2022-10-30T01:14:34;14.40;;;7.35;;
18296;SDS011;18066;52.106;5.534;2022-10-30T01:20:05;18.17;;;7.45;;
18296;SDS011;18066;52.106;5.534;2022-10-30T01:22:46;18.23;;;7.63;;
18296;SDS011;18066;52.106;5.534;2022-10-30T01:25:26;15.25;;;7.50;;
18296;SDS011;18066;52.106;5.534;2022-10-30T01:28:03;13.00;;;7.10;;
18296;SDS011;18066;52.106;5.534;2022-10-30T01:30:50;16.75;;;8.00;;
18296;SDS011;18066;52.106;5.534;2022-10-30T01:33:31;12.38;;;7.03;;
18296;SDS011;18066;52.106;5.534;2022-10-30T01:36:13;14.75;;;7.20;;
18296;SDS011;18066;52.106;5.534;2022-10-30T01:38:47;14.40;;;7.78;;
18296;SDS011;18066;52.106;5.534;2022-10-30T01:41:17;17.08;;;8.32;;
18296;SDS011;18066;52.106;5.534;2022-10-30T01:43:44;13.25;;;7.30;;
18296;SDS011;18066;52.106;5.534;2022-10-30T01:46:18;16.85;;;7.40;;
18296;SDS011;18066;52.106;5.534;2022-10-30T01:49:01;13.85;;;6.85;;
18296;SDS011;18066;52.106;5.534;2022-10-30T01:51:49;12.82;;;7.65;;
18296;SDS011;18066;52.106;5.534;2022-10-30T01:54:24;14.20;;;7.10;;
18296;SDS011;18066;52.106;5.534;2022-10-30T01:57:00;20.02;;;8.13;;
18296;SDS011;18066;52.106;5.534;2022-10-30T01:59:30;13.82;;;7.93;;
18296;SDS011;18066;52.106;5.534;2022-10-30T02:02:02;11.35;;;7.85;;
18296;SDS011;18066;52.106;5.534;2022-10-30T02:04:30;17.90;;;8.35;;
18296;SDS011;18066;52.106;5.534;2022-10-30T02:06:57;17.50;;;7.90;;
18296;SDS011;18066;52.106;5.534;2022-10-30T02:09:23;18.10;;;8.13;;
18296;SDS011;18066;52.106;5.534;2022-10-30T02:11:51;12.73;;;7.65;;
18296;SDS011;18066;52.106;5.534;2022-10-30T02:14:20;17.55;;;8.20;;
18296;SDS011;18066;52.106;5.534;2022-10-30T02:16:50;18.90;;;8.00;;
18296;SDS011;18066;52.106;5.534;2022-10-30T02:19:21;16.40;;;7.57;;
18296;SDS011;18066;52.106;5.534;2022-10-30T02:21:49;17.70;;;7.82;;
18296;SDS011;18066;52.106;5.534;2022-10-30T02:24:16;18.40;;;7.28;;
18296;SDS011;18066;52.106;5.534;2022-10-30T02:26:43;19.92;;;7.95;;
18296;SDS011;18066;52.106;5.534;2022-10-30T02:29:10;13.40;;;8.10;;
18296;SDS011;18066;52.106;5.534;2022-10-30T02:31:37;14.52;;;7.78;;
18296;SDS011;18066;52.106;5.534;2022-10-30T02:34:04;24.25;;;8.38;;
18296;SDS011;18066;52.106;5.534;2022-10-30T02:36:31;10.07;;;7.53;;
18296;SDS011;18066;52.106;5.534;2022-10-30T02:38:59;14.57;;;7.93;;
18296;SDS011;18066;52.106;5.534;2022-10-30T02:41:26;10.35;;;7.15;;
18296;SDS011;18066;52.106;5.534;2022-10-30T02:43:53;12.05;;;7.03;;
18296;SDS011;18066;52.106;5.534;2022-10-30T02:46:19;15.07;;;7.78;;
18296;SDS011;18066;52.106;5.534;2022-10-30T02:48:47;12.63;;;7.35;;
18296;SDS011;18066;52.106;5.534;2022-10-30T02:51:13;12.43;;;7.47;;
18296;SDS011;18066;52.106;5.534;2022-10-30T02:53:40;15.77;;;8.48;;
18296;SDS011;18066;52.106;5.534;2022-10-30T02:56:09;10.73;;;6.60;;
18296;SDS011;18066;52.106;5.534;2022-10-30T02:58:37;12.27;;;7.13;;
18296;SDS011;18066;52.106;5.534;2022-10-30T03:01:05;12.63;;;6.50;;
18296;SDS011;18066;52.106;5.534;2022-10-30T03:03:33;10.50;;;6.60;;
18296;SDS011;18066;52.106;5.534;2022-10-30T03:06:00;13.20;;;7.10;;
18296;SDS011;18066;52.106;5.534;2022-10-30T03:08:28;11.68;;;6.30;;
18296;SDS011;18066;52.106;5.534;2022-10-30T03:10:58;18.20;;;6.97;;
18296;SDS011;18066;52.106;5.534;2022-10-30T03:13:27;14.80;;;7.22;;
18296;SDS011;18066;52.106;5.534;2022-10-30T03:15:58;10.30;;;6.72;;
18296;SDS011;18066;52.106;5.534;2022-10-30T03:18:25;12.38;;;6.75;;
18296;SDS011;18066;52.106;5.534;2022-10-30T03:20:54;10.93;;;7.15;;
18296;SDS011;18066;52.106;5.534;2022-10-30T03:23:22;11.90;;;6.75;;
18296;SDS011;18066;52.106;5.534;2022-10-30T03:25:50;12.23;;;7.25;;
18296;SDS011;18066;52.106;5.534;2022-10-30T03:28:18;15.93;;;6.90;;
18296;SDS011;18066;52.106;5.534;2022-10-30T03:30:46;16.85;;;6.60;;
18296;SDS011;18066;52.106;5.534;2022-10-30T03:33:13;8.57;;;6.68;;
18296;SDS011;18066;52.106;5.534;2022-10-30T03:35:41;12.35;;;6.97;;
18296;SDS011;18066;52.106;5.534;2022-10-30T03:38:08;10.82;;;6.53;;
18296;SDS011;18066;52.106;5.534;2022-10-30T03:40:35;17.05;;;7.00;;
18296;SDS011;18066;52.106;5.534;2022-10-30T03:43:02;18.75;;;6.95;;
18296;SDS011;18066;52.106;5.534;2022-10-30T03:45:30;14.05;;;6.88;;
18296;SDS011;18066;52.106;5.534;2022-10-30T03:47:58;11.57;;;5.95;;
18296;SDS011;18066;52.106;5.534;2022-10-30T03:50:25;10.27;;;6.82;;
18296;SDS011;18066;52.106;5.534;2022-10-30T03:52:52;14.85;;;7.57;;
18296;SDS011;18066;52.106;5.534;2022-10-30T03:55:20;19.35;;;6.95;;
18296;SDS011;18066;52.106;5.534;2022-10-30T03:57:47;13.77;;;7.28;;
18296;SDS011;18066;52.106;5.534;2022-10-30T04:00:14;16.48;;;7.22;;
18296;SDS011;18066;52.106;5.534;2022-10-30T04:02:45;12.93;;;7.38;;
18296;SDS011;18066;52.106;5.534;2022-10-30T04:05:13;19.55;;;7.50;;
18296;SDS011;18066;52.106;5.534;2022-10-30T04:07:41;13.05;;;6.95;;
18296;SDS011;18066;52.106;5.534;2022-10-30T04:10:11;12.68;;;7.07;;
18296;SDS011;18066;52.106;5.534;2022-10-30T04:12:39;20.60;;;9.18;;
18296;SDS011;18066;52.106;5.534;2022-10-30T04:15:06;16.35;;;7.47;;
18296;SDS011;18066;52.106;5.534;2022-10-30T04:17:33;11.13;;;7.50;;
18296;SDS011;18066;52.106;5.534;2022-10-30T04:20:00;19.58;;;8.65;;
18296;SDS011;18066;52.106;5.534;2022-10-30T04:22:28;14.43;;;7.97;;
18296;SDS011;18066;52.106;5.534;2022-10-30T04:24:55;13.60;;;7.30;;
18296;SDS011;18066;52.106;5.534;2022-10-30T04:27:22;20.50;;;8.40;;
18296;SDS011;18066;52.106;5.534;2022-10-30T04:29:49;11.40;;;7.15;;
18296;SDS011;18066;52.106;5.534;2022-10-30T04:32:16;19.30;;;7.47;;
18296;SDS011;18066;52.106;5.534;2022-10-30T04:34:44;13.20;;;8.00;;
18296;SDS011;18066;52.106;5.534;2022-10-30T04:37:10;12.93;;;7.05;;
18296;SDS011;18066;52.106;5.534;2022-10-30T04:39:38;13.98;;;8.10;;
18296;SDS011;18066;52.106;5.534;2022-10-30T04:42:05;16.52;;;7.85;;
18296;SDS011;18066;52.106;5.534;2022-10-30T04:44:32;12.50;;;7.90;;
18296;SDS011;18066;52.106;5.534;2022-10-30T04:46:59;14.25;;;7.07;;
18296;SDS011;18066;52.106;5.534;2022-10-30T04:49:25;11.63;;;6.70;;
18296;SDS011;18066;52.106;5.534;2022-10-30T04:51:52;13.63;;;7.25;;
18296;SDS011;18066;52.106;5.534;2022-10-30T04:54:19;16.65;;;7.20;;
18296;SDS011;18066;52.106;5.534;2022-10-30T04:56:47;14.43;;;7.28;;
18296;SDS011;18066;52.106;5.534;2022-10-30T04:59:14;10.40;;;7.22;;
18296;SDS011;18066;52.106;5.534;2022-10-30T05:01:40;15.32;;;7.78;;
18296;SDS011;18066;52.106;5.534;2022-10-30T05:04:07;14.07;;;8.17;;
18296;SDS011;18066;52.106;5.534;2022-10-30T05:06:34;18.45;;;8.60;;
18296;SDS011;18066;52.106;5.534;2022-10-30T05:09:01;12.63;;;7.57;;
18296;SDS011;18066;52.106;5.534;2022-10-30T05:11:28;12.98;;;7.75;;
18296;SDS011;18066;52.106;5.534;2022-10-30T05:13:56;19.88;;;8.75;;
18296;SDS011;18066;52.106;5.534;2022-10-30T05:16:23;20.02;;;8.32;;
18296;SDS011;18066;52.106;5.534;2022-10-30T05:18:50;11.88;;;7.65;;
18296;SDS011;18066;52.106;5.534;2022-10-30T05:21:17;18.85;;;7.85;;
18296;SDS011;18066;52.106;5.534;2022-10-30T05:23:44;19.85;;;8.38;;
18296;SDS011;18066;52.106;5.534;2022-10-30T05:26:10;16.38;;;7.90;;
18296;SDS011;18066;52.106;5.534;2022-10-30T05:28:37;13.55;;;7.70;;
18296;SDS011;18066;52.106;5.534;2022-10-30T05:31:06;12.68;;;7.57;;
18296;SDS011;18066;52.106;5.534;2022-10-30T05:33:33;11.65;;;7.78;;
18296;SDS011;18066;52.106;5.534;2022-10-30T05:36:00;16.23;;;6.97;;
18296;SDS011;18066;52.106;5.534;2022-10-30T05:38:27;13.07;;;6.95;;
18296;SDS011;18066;52.106;5.534;2022-10-30T05:40:53;15.10;;;7.25;;
18296;SDS011;18066;52.106;5.534;2022-10-30T05:43:20;10.00;;;6.65;;
18296;SDS011;18066;52.106;5.534;2022-10-30T05:45:47;12.55;;;7.13;;
18296;SDS011;18066;52.106;5.534;2022-10-30T05:48:15;13.53;;;7.23;;
18296;SDS011;18066;52.106;5.534;2022-10-30T05:50:42;13.63;;;7.80;;
18296;SDS011;18066;52.106;5.534;2022-10-30T05:53:09;9.83;;;7.00;;
18296;SDS011;18066;52.106;5.534;2022-10-30T05:55:36;10.52;;;7.05;;
18296;SDS011;18066;52.106;5.534;2022-10-30T05:58:03;9.23;;;6.97;;
18296;SDS011;18066;52.106;5.534;2022-10-30T06:00:32;13.25;;;7.85;;
18296;SDS011;18066;52.106;5.534;2022-10-30T06:03:01;11.88;;;6.72;;
18296;SDS011;18066;52.106;5.534;2022-10-30T06:05:31;11.60;;;7.47;;
18296;SDS011;18066;52.106;5.534;2022-10-30T06:07:59;11.97;;;7.20;;
18296;SDS011;18066;52.106;5.534;2022-10-30T06:10:26;15.57;;;8.10;;
18296;SDS011;18066;52.106;5.534;2022-10-30T06:12:53;12.73;;;6.87;;
18296;SDS011;18066;52.106;5.534;2022-10-30T06:15:20;8.93;;;6.53;;
18296;SDS011;18066;52.106;5.534;2022-10-30T06:17:47;16.77;;;8.17;;
18296;SDS011;18066;52.106;5.534;2022-10-30T06:20:14;13.10;;;7.07;;
18296;SDS011;18066;52.106;5.534;2022-10-30T06:22:50;13.73;;;6.85;;
18296;SDS011;18066;52.106;5.534;2022-10-30T06:25:19;10.82;;;7.35;;
18296;SDS011;18066;52.106;5.534;2022-10-30T06:27:45;14.17;;;7.70;;
18296;SDS011;18066;52.106;5.534;2022-10-30T06:30:12;16.60;;;7.93;;
18296;SDS011;18066;52.106;5.534;2022-10-30T06:32:39;14.37;;;7.37;;
18296;SDS011;18066;52.106;5.534;2022-10-30T06:35:06;14.57;;;8.27;;
18296;SDS011;18066;52.106;5.534;2022-10-30T06:37:33;15.18;;;7.40;;
18296;SDS011;18066;52.106;5.534;2022-10-30T06:40:02;17.42;;;8.63;;
18296;SDS011;18066;52.106;5.534;2022-10-30T06:42:29;19.23;;;8.30;;
18296;SDS011;18066;52.106;5.534;2022-10-30T06:44:55;20.45;;;8.23;;
18296;SDS011;18066;52.106;5.534;2022-10-30T06:47:22;18.48;;;7.88;;
18296;SDS011;18066;52.106;5.534;2022-10-30T06:49:51;18.43;;;8.30;;
18296;SDS011;18066;52.106;5.534;2022-10-30T06:52:18;13.15;;;7.63;;
18296;SDS011;18066;52.106;5.534;2022-10-30T06:54:47;13.82;;;7.82;;
18296;SDS011;18066;52.106;5.534;2022-10-30T06:57:15;10.40;;;6.50;;
18296;SDS011;18066;52.106;5.534;2022-10-30T06:59:41;11.90;;;7.07;;
18296;SDS011;18066;52.106;5.534;2022-10-30T07:02:08;18.88;;;7.32;;
18296;SDS011;18066;52.106;5.534;2022-10-30T07:04:36;16.48;;;7.80;;
18296;SDS011;18066;52.106;5.534;2022-10-30T07:07:03;14.20;;;7.20;;
18296;SDS011;18066;52.106;5.534;2022-10-30T07:09:29;15.40;;;8.37;;
18296;SDS011;18066;52.106;5.534;2022-10-30T07:11:56;14.57;;;8.50;;
18296;SDS011;18066;52.106;5.534;2022-10-30T07:14:24;16.98;;;8.27;;
18296;SDS011;18066;52.106;5.534;2022-10-30T07:16:53;14.33;;;6.77;;
18296;SDS011;18066;52.106;5.534;2022-10-30T07:19:19;14.02;;;6.93;;
18296;SDS011;18066;52.106;5.534;2022-10-30T07:21:46;14.88;;;6.90;;
18296;SDS011;18066;52.106;5.534;2022-10-30T07:24:14;12.93;;;7.50;;
18296;SDS011;18066;52.106;5.534;2022-10-30T07:26:41;11.82;;;7.50;;
18296;SDS011;18066;52.106;5.534;2022-10-30T07:29:08;10.23;;;6.63;;
18296;SDS011;18066;52.106;5.534;2022-10-30T07:31:36;14.88;;;6.93;;
18296;SDS011;18066;52.106;5.534;2022-10-30T07:34:03;12.75;;;7.50;;
18296;SDS011;18066;52.106;5.534;2022-10-30T07:36:29;10.98;;;6.88;;
18296;SDS011;18066;52.106;5.534;2022-10-30T07:38:56;13.65;;;7.50;;
18296;SDS011;18066;52.106;5.534;2022-10-30T07:41:23;15.15;;;7.15;;
18296;SDS011;18066;52.106;5.534;2022-10-30T07:43:50;13.30;;;7.88;;
18296;SDS011;18066;52.106;5.534;2022-10-30T07:46:17;11.93;;;6.90;;
18296;SDS011;18066;52.106;5.534;2022-10-30T07:48:45;9.85;;;7.05;;
18296;SDS011;18066;52.106;5.534;2022-10-30T07:51:12;11.57;;;7.75;;
18296;SDS011;18066;52.106;5.534;2022-10-30T07:53:39;13.80;;;7.95;;
18296;SDS011;18066;52.106;5.534;2022-10-30T07:56:06;11.23;;;7.53;;
18296;SDS011;18066;52.106;5.534;2022-10-30T07:58:33;15.90;;;8.70;;
18296;SDS011;18066;52.106;5.534;2022-10-30T08:01:01;16.38;;;8.35;;
18296;SDS011;18066;52.106;5.534;2022-10-30T08:03:28;18.67;;;7.75;;
18296;SDS011;18066;52.106;5.534;2022-10-30T08:05:56;18.25;;;8.75;;
18296;SDS011;18066;52.106;5.534;2022-10-30T08:08:23;14.73;;;9.60;;
18296;SDS011;18066;52.106;5.534;2022-10-30T08:10:50;21.23;;;9.80;;
18296;SDS011;18066;52.106;5.534;2022-10-30T08:13:17;15.27;;;8.40;;
18296;SDS011;18066;52.106;5.534;2022-10-30T08:15:43;17.13;;;8.45;;
18296;SDS011;18066;52.106;5.534;2022-10-30T08:18:10;13.25;;;8.93;;
18296;SDS011;18066;52.106;5.534;2022-10-30T08:20:37;16.67;;;9.60;;
18296;SDS011;18066;52.106;5.534;2022-10-30T08:23:05;18.00;;;9.50;;
18296;SDS011;18066;52.106;5.534;2022-10-30T08:25:32;16.60;;;9.48;;
18296;SDS011;18066;52.106;5.534;2022-10-30T08:27:59;16.80;;;9.75;;
18296;SDS011;18066;52.106;5.534;2022-10-30T08:30:27;12.50;;;8.77;;
18296;SDS011;18066;52.106;5.534;2022-10-30T08:32:56;16.20;;;9.60;;
18296;SDS011;18066;52.106;5.534;2022-10-30T08:35:23;18.67;;;10.02;;
18296;SDS011;18066;52.106;5.534;2022-10-30T08:37:53;19.75;;;10.57;;
18296;SDS011;18066;52.106;5.534;2022-10-30T08:40:21;16.42;;;10.40;;
18296;SDS011;18066;52.106;5.534;2022-10-30T08:42:51;18.30;;;10.30;;
18296;SDS011;18066;52.106;5.534;2022-10-30T08:45:19;21.77;;;10.57;;
18296;SDS011;18066;52.106;5.534;2022-10-30T08:47:47;16.42;;;9.77;;
18296;SDS011;18066;52.106;5.534;2022-10-30T08:50:21;16.48;;;9.85;;
18296;SDS011;18066;52.106;5.534;2022-10-30T09:03:24;16.98;;;10.13;;
18296;SDS011;18066;52.106;5.534;2022-10-30T09:06:02;18.15;;;9.82;;
18296;SDS011;18066;52.106;5.534;2022-10-30T09:08:48;14.20;;;10.32;;
18296;SDS011;18066;52.106;5.534;2022-10-30T09:11:40;18.33;;;10.43;;
18296;SDS011;18066;52.106;5.534;2022-10-30T09:14:27;13.27;;;9.15;;
18296;SDS011;18066;52.106;5.534;2022-10-30T09:17:00;15.88;;;11.27;;
18296;SDS011;18066;52.106;5.534;2022-10-30T09:19:38;19.08;;;11.18;;
18296;SDS011;18066;52.106;5.534;2022-10-30T09:24:51;16.90;;;10.73;;
18296;SDS011;18066;52.106;5.534;2022-10-30T09:27:18;18.38;;;11.10;;
18296;SDS011;18066;52.106;5.534;2022-10-30T09:29:48;15.95;;;9.48;;
18296;SDS011;18066;52.106;5.534;2022-10-30T09:32:16;16.73;;;9.88;;
18296;SDS011;18066;52.106;5.534;2022-10-30T09:34:51;22.17;;;10.55;;
18296;SDS011;18066;52.106;5.534;2022-10-30T09:37:22;17.00;;;10.38;;
18296;SDS011;18066;52.106;5.534;2022-10-30T09:40:00;18.40;;;8.98;;
18296;SDS011;18066;52.106;5.534;2022-10-30T09:42:39;20.48;;;11.32;;
18296;SDS011;18066;52.106;5.534;2022-10-30T09:45:28;16.92;;;10.63;;
18296;SDS011;18066;52.106;5.534;2022-10-30T09:48:18;14.63;;;9.23;;
18296;SDS011;18066;52.106;5.534;2022-10-30T09:54:14;13.75;;;9.48;;
18296;SDS011;18066;52.106;5.534;2022-10-30T09:57:26;15.13;;;10.18;;
18296;SDS011;18066;52.106;5.534;2022-10-30T10:00:28;15.05;;;10.45;;
18296;SDS011;18066;52.106;5.534;2022-10-30T10:06:28;19.50;;;10.70;;
18296;SDS011;18066;52.106;5.534;2022-10-30T10:09:34;21.05;;;11.38;;
18296;SDS011;18066;52.106;5.534;2022-10-30T10:12:37;21.05;;;10.60;;
18296;SDS011;18066;52.106;5.534;2022-10-30T10:15:14;18.45;;;11.30;;
18296;SDS011;18066;52.106;5.534;2022-10-30T10:17:51;20.92;;;10.43;;
18296;SDS011;18066;52.106;5.534;2022-10-30T10:20:29;17.70;;;9.80;;
18296;SDS011;18066;52.106;5.534;2022-10-30T10:23:25;16.75;;;10.57;;
18296;SDS011;18066;52.106;5.534;2022-10-30T10:26:12;14.98;;;9.27;;
18296;SDS011;18066;52.106;5.534;2022-10-30T10:32:10;19.75;;;11.35;;
18296;SDS011;18066;52.106;5.534;2022-10-30T10:35:16;19.10;;;11.63;;
18296;SDS011;18066;52.106;5.534;2022-10-30T10:38:07;27.05;;;12.77;;
18296;SDS011;18066;52.106;5.534;2022-10-30T10:40:56;17.38;;;10.80;;
18296;SDS011;18066;52.106;5.534;2022-10-30T10:43:35;17.55;;;11.35;;
18296;SDS011;18066;52.106;5.534;2022-10-30T10:46:19;25.25;;;12.57;;
18296;SDS011;18066;52.106;5.534;2022-10-30T10:49:13;19.63;;;11.77;;
18296;SDS011;18066;52.106;5.534;2022-10-30T10:51:54;19.60;;;11.85;;
18296;SDS011;18066;52.106;5.534;2022-10-30T10:54:33;20.55;;;11.32;;
18296;SDS011;18066;52.106;5.534;2022-10-30T10:57:22;20.88;;;11.75;;
18296;SDS011;18066;52.106;5.534;2022-10-30T11:03:08;21.70;;;11.02;;
18296;SDS011;18066;52.106;5.534;2022-10-30T11:10:18;25.48;;;11.75;;
18296;SDS011;18066;52.106;5.534;2022-10-30T11:12:06;15.25;;;10.45;;
18296;SDS011;18066;52.106;5.534;2022-10-30T11:14:49;24.40;;;11.95;;
18296;SDS011;18066;52.106;5.534;2022-10-30T11:17:53;15.65;;;9.05;;
18296;SDS011;18066;52.106;5.534;2022-10-30T11:20:47;16.33;;;9.75;;
18296;SDS011;18066;52.106;5.534;2022-10-30T11:23:35;21.92;;;12.75;;
18296;SDS011;18066;52.106;5.534;2022-10-30T11:26:37;15.75;;;11.77;;
18296;SDS011;18066;52.106;5.534;2022-10-30T11:29:23;17.15;;;12.00;;
18296;SDS011;18066;52.106;5.534;2022-10-30T11:36:04;20.05;;;10.90;;
18296;SDS011;18066;52.106;5.534;2022-10-30T11:39:34;25.42;;;11.95;;
18296;SDS011;18066;52.106;5.534;2022-10-30T11:42:35;18.92;;;11.68;;
18296;SDS011;18066;52.106;5.534;2022-10-30T11:45:07;20.33;;;12.57;;
18296;SDS011;18066;52.106;5.534;2022-10-30T11:54:38;18.30;;;12.27;;
18296;SDS011;18066;52.106;5.534;2022-10-30T11:57:37;16.70;;;11.77;;
18296;SDS011;18066;52.106;5.534;2022-10-30T12:10:00;14.30;;;9.70;;
18296;SDS011;18066;52.106;5.534;2022-10-30T12:12:40;13.85;;;8.70;;
18296;SDS011;18066;52.106;5.534;2022-10-30T12:17:00;12.98;;;9.20;;
18296;SDS011;18066;52.106;5.534;2022-10-30T12:29:21;17.13;;;10.07;;
18296;SDS011;18066;52.106;5.534;2022-10-30T12:58:30;23.52;;;11.85;;
18296;SDS011;18066;52.106;5.534;2022-10-30T13:01:44;18.75;;;12.63;;
18296;SDS011;18066;52.106;5.534;2022-10-30T13:08:16;16.40;;;11.25;;
18296;SDS011;18066;52.106;5.534;2022-10-30T13:11:18;16.67;;;11.05;;
18296;SDS011;18066;52.106;5.534;2022-10-30T14:23:05;14.57;;;10.20;;
18296;SDS011;18066;52.106;5.534;2022-10-30T14:25:33;20.15;;;11.70;;
18296;SDS011;18066;52.106;5.534;2022-10-30T14:28:00;20.15;;;11.15;;
18296;SDS011;18066;52.106;5.534;2022-10-30T14:30:27;18.95;;;11.20;;
18296;SDS011;18066;52.106;5.534;2022-10-30T14:32:54;20.00;;;11.18;;
18296;SDS011;18066;52.106;5.534;2022-10-30T14:35:32;18.73;;;11.23;;
18296;SDS011;18066;52.106;5.534;2022-10-30T14:38:22;17.08;;;11.65;;
18296;SDS011;18066;52.106;5.534;2022-10-30T14:41:04;22.05;;;12.85;;
18296;SDS011;18066;52.106;5.534;2022-10-30T14:44:05;24.70;;;12.90;;
18296;SDS011;18066;52.106;5.534;2022-10-30T14:46:43;19.63;;;11.18;;
18296;SDS011;18066;52.106;5.534;2022-10-30T14:52:22;23.10;;;12.18;;
18296;SDS011;18066;52.106;5.534;2022-10-30T14:54:58;20.77;;;12.02;;
18296;SDS011;18066;52.106;5.534;2022-10-30T14:57:45;22.35;;;12.63;;
18296;SDS011;18066;52.106;5.534;2022-10-30T15:00:36;22.27;;;12.50;;
18296;SDS011;18066;52.106;5.534;2022-10-30T15:03:04;19.70;;;10.98;;
18296;SDS011;18066;52.106;5.534;2022-10-30T15:05:42;15.32;;;11.00;;
18296;SDS011;18066;52.106;5.534;2022-10-30T15:08:21;18.88;;;11.80;;
18296;SDS011;18066;52.106;5.534;2022-10-30T15:11:01;18.98;;;11.35;;
18296;SDS011;18066;52.106;5.534;2022-10-30T15:13:42;16.70;;;10.90;;
18296;SDS011;18066;52.106;5.534;2022-10-30T15:16:12;17.63;;;11.00;;
18296;SDS011;18066;52.106;5.534;2022-10-30T15:18:43;15.45;;;10.32;;
18296;SDS011;18066;52.106;5.534;2022-10-30T15:21:13;20.98;;;12.45;;
18296;SDS011;18066;52.106;5.534;2022-10-30T15:23:48;20.83;;;13.05;;
18296;SDS011;18066;52.106;5.534;2022-10-30T15:26:17;20.52;;;12.77;;
18296;SDS011;18066;52.106;5.534;2022-10-30T15:28:46;20.27;;;12.85;;
18296;SDS011;18066;52.106;5.534;2022-10-30T15:31:22;20.35;;;12.50;;
18296;SDS011;18066;52.106;5.534;2022-10-30T15:33:49;19.23;;;11.93;;
18296;SDS011;18066;52.106;5.534;2022-10-30T15:36:19;20.63;;;12.00;;
18296;SDS011;18066;52.106;5.534;2022-10-30T18:03:33;8.90;;;4.97;;
18296;SDS011;18066;52.106;5.534;2022-10-30T18:06:00;8.98;;;6.07;;
18296;SDS011;18066;52.106;5.534;2022-10-30T18:08:28;15.10;;;6.38;;
18296;SDS011;18066;52.106;5.534;2022-10-30T18:10:55;8.48;;;5.18;;
18296;SDS011;18066;52.106;5.534;2022-10-30T18:13:22;12.27;;;5.70;;
18296;SDS011;18066;52.106;5.534;2022-10-30T18:15:50;9.88;;;5.47;;
18296;SDS011;18066;52.106;5.534;2022-10-30T18:18:19;17.48;;;6.38;;
18296;SDS011;18066;52.106;5.534;2022-10-30T18:20:47;8.52;;;5.28;;
18296;SDS011;18066;52.106;5.534;2022-10-30T18:23:16;10.80;;;5.55;;
18296;SDS011;18066;52.106;5.534;2022-10-30T18:25:44;11.95;;;5.63;;
18296;SDS011;18066;52.106;5.534;2022-10-30T18:28:11;8.98;;;4.30;;
18296;SDS011;18066;52.106;5.534;2022-10-30T18:30:38;10.93;;;4.75;;
18296;SDS011;18066;52.106;5.534;2022-10-30T18:33:04;11.63;;;5.68;;
18296;SDS011;18066;52.106;5.534;2022-10-30T18:35:32;12.35;;;5.38;;
18296;SDS011;18066;52.106;5.534;2022-10-30T18:38:02;12.57;;;5.32;;
18296;SDS011;18066;52.106;5.534;2022-10-30T18:40:29;10.85;;;4.97;;
18296;SDS011;18066;52.106;5.534;2022-10-30T18:42:57;9.85;;;5.15;;
18296;SDS011;18066;52.106;5.534;2022-10-30T18:45:25;14.07;;;5.65;;
18296;SDS011;18066;52.106;5.534;2022-10-30T18:47:53;8.48;;;5.35;;
18296;SDS011;18066;52.106;5.534;2022-10-30T18:50:21;8.38;;;6.45;;
18296;SDS011;18066;52.106;5.534;2022-10-30T18:52:49;16.48;;;6.43;;
18296;SDS011;18066;52.106;5.534;2022-10-30T18:55:18;11.63;;;6.18;;
18296;SDS011;18066;52.106;5.534;2022-10-30T18:57:47;14.80;;;6.15;;
18296;SDS011;18066;52.106;5.534;2022-10-30T19:00:15;11.68;;;6.68;;
18296;SDS011;18066;52.106;5.534;2022-10-30T19:02:43;13.52;;;6.15;;
18296;SDS011;18066;52.106;5.534;2022-10-30T19:05:15;11.35;;;6.10;;
18296;SDS011;18066;52.106;5.534;2022-10-30T19:07:45;9.75;;;6.28;;
18296;SDS011;18066;52.106;5.534;2022-10-30T19:10:12;12.50;;;6.38;;
18296;SDS011;18066;52.106;5.534;2022-10-30T19:12:40;10.50;;;6.53;;
18296;SDS011;18066;52.106;5.534;2022-10-30T19:15:11;9.88;;;6.82;;
18296;SDS011;18066;52.106;5.534;2022-10-30T19:17:41;9.68;;;6.43;;
18296;SDS011;18066;52.106;5.534;2022-10-30T19:20:08;17.27;;;7.10;;
18296;SDS011;18066;52.106;5.534;2022-10-30T19:22:35;12.05;;;6.97;;
18296;SDS011;18066;52.106;5.534;2022-10-30T19:25:08;12.57;;;7.30;;
18296;SDS011;18066;52.106;5.534;2022-10-30T19:27:43;10.85;;;6.47;;
18296;SDS011;18066;52.106;5.534;2022-10-30T19:30:10;13.15;;;7.13;;
18296;SDS011;18066;52.106;5.534;2022-10-30T19:32:38;15.35;;;6.95;;
18296;SDS011;18066;52.106;5.534;2022-10-30T19:35:05;13.45;;;7.30;;
18296;SDS011;18066;52.106;5.534;2022-10-30T19:37:32;12.98;;;7.05;;
18296;SDS011;18066;52.106;5.534;2022-10-30T19:39:59;12.80;;;7.38;;
18296;SDS011;18066;52.106;5.534;2022-10-30T19:42:42;11.48;;;7.03;;
18296;SDS011;18066;52.106;5.534;2022-10-30T19:45:09;16.17;;;7.47;;
18296;SDS011;18066;52.106;5.534;2022-10-30T19:47:36;14.20;;;6.82;;
18296;SDS011;18066;52.106;5.534;2022-10-30T19:50:10;12.10;;;5.78;;
18296;SDS011;18066;52.106;5.534;2022-10-30T19:52:56;10.50;;;6.10;;
18296;SDS011;18066;52.106;5.534;2022-10-30T19:55:24;11.27;;;5.55;;
18296;SDS011;18066;52.106;5.534;2022-10-30T19:57:53;19.63;;;6.43;;
18296;SDS011;18066;52.106;5.534;2022-10-30T20:00:21;10.55;;;5.63;;
18296;SDS011;18066;52.106;5.534;2022-10-30T20:02:50;13.90;;;5.43;;
18296;SDS011;18066;52.106;5.534;2022-10-30T20:05:17;10.80;;;5.68;;
18296;SDS011;18066;52.106;5.534;2022-10-30T20:07:55;13.38;;;4.90;;
18296;SDS011;18066;52.106;5.534;2022-10-30T20:10:26;10.30;;;4.90;;
18296;SDS011;18066;52.106;5.534;2022-10-30T20:12:55;13.63;;;5.57;;